Time;durP1;ratioP1;P1;durP2;ratioP2;P2;SDS_P1;SDS_P2;PMS_P1;PMS_P2;Temp;Humidity;BMP_temperature;BMP_pressure;BME280_temperature;BME280_humidity;BME280_pressure;Samples;Min_cycle;Max_cycle;Signal;HPM_P1;HPM_P2
2022/03/03 00:01:08;;;;;;;2.23;2.13;;;5.50;99.90;5.60;101842.00;;;;5093962;28;20218;-68
2022/03/03 00:03:36;;;;;;;2.33;2.23;;;5.50;99.90;5.90;101875.00;;;;5077704;28;20179;-68
2022/03/03 00:06:04;;;;;;;0.20;0.20;;;5.50;99.90;5.60;101871.00;;;;5094157;28;20176;-68
2022/03/03 00:08:38;;;;;;;0.50;0.50;;;5.50;99.90;5.70;101878.00;;;;5093074;28;20197;-68
2022/03/03 00:11:04;;;;;;;3.13;3.03;;;5.60;99.90;5.60;101854.00;;;;5093477;28;20176;-67
2022/03/03 00:13:33;;;;;;;2.80;2.43;;;5.50;99.90;5.60;101799.00;;;;5094486;28;20173;-68
2022/03/03 00:16:02;;;;;;;1.03;1.03;;;5.40;99.90;5.70;101808.00;;;;5093799;28;20614;-68
2022/03/03 00:18:31;;;;;;;1.70;1.53;;;5.50;99.90;5.80;101865.00;;;;5076761;28;20192;-68
2022/03/03 00:21:00;;;;;;;1.07;1.07;;;5.60;99.90;5.60;101804.00;;;;5093441;28;20618;-67
2022/03/03 00:23:29;;;;;;;1.33;1.33;;;5.50;99.90;5.20;101859.00;;;;5077308;28;20246;-67
2022/03/03 00:25:58;;;;;;;1.57;1.57;;;5.40;99.90;5.70;101876.00;;;;5093865;28;20177;-68
2022/03/03 00:28:35;;;;;;;1.13;1.07;;;5.50;99.90;5.40;101856.00;;;;5092660;28;20196;-67
2022/03/03 00:31:09;;;;;;;0.70;0.70;;;5.50;99.90;5.20;101856.00;;;;5093879;28;20260;-67
2022/03/03 00:33:37;;;;;;;2.17;1.53;;;5.40;99.90;4.90;101841.00;;;;5093223;28;20680;-68
2022/03/03 00:36:09;;;;;;;0.30;0.30;;;5.20;99.90;5.20;101859.00;;;;5074810;28;20559;-67
2022/03/03 00:38:40;;;;;;;7.03;2.93;;;5.20;99.90;5.20;101857.00;;;;5094917;28;20242;-67
2022/03/03 00:41:14;;;;;;;2.80;1.27;;;5.20;99.90;5.20;101860.00;;;;5095234;28;20165;-68
2022/03/03 00:43:45;;;;;;;2.33;1.87;;;5.20;99.90;5.20;101865.00;;;;5092830;28;20261;-68
2022/03/03 00:46:13;;;;;;;2.10;2.00;;;5.20;99.90;5.10;101856.00;;;;5093225;28;20176;-68
2022/03/03 00:48:50;;;;;;;2.10;1.90;;;5.20;99.90;4.90;101800.00;;;;5075092;28;20193;-68
2022/03/03 00:51:16;;;;;;;3.00;2.80;;;5.10;99.90;5.00;101855.00;;;;5076883;28;20212;-68
2022/03/03 00:53:47;;;;;;;0.73;0.73;;;5.10;99.90;4.70;101849.00;;;;5092962;28;20648;-68
2022/03/03 00:56:17;;;;;;;1.07;1.00;;;4.90;99.90;4.80;101848.00;;;;5091391;28;20180;-68
2022/03/03 00:58:45;;;;;;;0.30;0.30;;;4.90;99.90;5.10;101796.00;;;;5093276;28;20184;-68
2022/03/03 01:01:15;;;;;;;0.67;0.67;;;4.90;99.90;4.90;101846.00;;;;5093102;28;20181;-68
2022/03/03 01:03:48;;;;;;;1.20;1.20;;;4.90;99.90;4.90;101835.00;;;;5092792;28;20181;-68
2022/03/03 01:06:20;;;;;;;6.50;2.27;;;4.90;99.90;5.00;101853.00;;;;5093386;28;20259;-67
2022/03/03 01:08:51;;;;;;;1.70;1.70;;;4.90;99.90;4.70;101833.00;;;;5093240;28;20176;-67
2022/03/03 01:11:23;;;;;;;4.00;1.50;;;4.90;99.90;4.60;101847.00;;;;5091929;28;20679;-67
2022/03/03 01:13:54;;;;;;;1.03;1.03;;;4.70;99.90;4.90;101836.00;;;;5092274;28;20177;-68
2022/03/03 01:16:26;;;;;;;0.30;0.30;;;4.80;99.90;4.60;101851.00;;;;5093332;28;20215;-67
2022/03/03 01:19:00;;;;;;;0.20;0.20;;;4.80;99.90;4.40;101825.00;;;;5093569;28;20541;-67
2022/03/03 01:21:31;;;;;;;5.33;4.40;;;4.70;99.90;4.60;101832.00;;;;5093423;28;20180;-67
2022/03/03 01:24:00;;;;;;;1.87;1.77;;;4.70;99.90;4.60;101833.00;;;;5091159;28;20176;-67
2022/03/03 01:26:34;;;;;;;1.63;1.57;;;4.70;99.90;4.70;101810.00;;;;5093713;28;20694;-68
2022/03/03 01:29:05;;;;;;;0.63;0.63;;;4.60;99.90;4.60;101812.00;;;;5092128;28;20636;-67
2022/03/03 01:31:31;;;;;;;1.70;1.70;;;4.60;99.90;4.30;101817.00;;;;5091984;28;20208;-67
2022/03/03 01:34:06;;;;;;;1.80;1.80;;;4.50;99.90;4.50;101767.00;;;;5091661;28;20185;-68
2022/03/03 01:36:40;;;;;;;1.23;1.13;;;4.50;99.90;4.50;101816.00;;;;5093434;28;20177;-67
2022/03/03 01:39:11;;;;;;;2.57;1.73;;;4.60;99.90;4.50;101800.00;;;;5090254;28;20803;-67
2022/03/03 01:41:43;;;;;;;0.67;0.67;;;4.60;99.90;4.50;101806.00;;;;5090933;28;20177;-67
2022/03/03 01:44:14;;;;;;;0.20;0.20;;;4.50;99.90;4.60;101803.00;;;;5092300;28;20172;-67
2022/03/03 01:46:56;;;;;;;0.40;0.40;;;4.60;99.90;4.60;101807.00;;;;5092287;28;20169;-67
2022/03/03 01:49:30;;;;;;;1.20;1.17;;;4.60;99.90;4.60;101801.00;;;;5090973;28;20177;-67
2022/03/03 01:52:01;;;;;;;0.20;0.20;;;4.60;99.90;4.20;101790.00;;;;5092548;28;20295;-67
2022/03/03 01:54:32;;;;;;;0.40;0.40;;;4.40;99.90;4.00;101777.00;;;;5092310;28;20180;-68
2022/03/03 01:57:05;;;;;;;0.87;0.87;;;4.30;99.90;4.00;101788.00;;;;5092507;28;20187;-68
2022/03/03 01:59:38;;;;;;;5.40;2.63;;;4.30;99.90;4.10;101783.00;;;;5092643;28;20601;-68
2022/03/03 02:02:07;;;;;;;15.53;11.03;;;4.20;99.90;4.30;101797.00;;;;5091860;28;20619;-68
2022/03/03 02:04:40;;;;;;;0.97;0.97;;;4.30;99.90;4.20;101785.00;;;;5090731;28;20190;-68
2022/03/03 02:07:20;;;;;;;4.33;4.03;;;4.30;99.90;4.20;101724.00;;;;5091617;28;20539;-67
2022/03/03 02:09:56;;;;;;;0.50;0.50;;;4.30;99.90;4.30;101784.00;;;;5090563;28;20300;-68
2022/03/03 02:12:32;;;;;;;3.03;2.10;;;4.40;99.90;4.50;101736.00;;;;5092581;28;20207;-68
2022/03/03 02:15:04;;;;;;;2.10;2.10;;;4.40;99.90;4.40;101767.00;;;;5092355;28;20245;-68
2022/03/03 02:17:35;;;;;;;1.40;1.40;;;4.40;99.90;4.30;101763.00;;;;5091699;28;20229;-68
2022/03/03 02:20:07;;;;;;;1.67;1.53;;;4.50;99.90;4.10;101754.00;;;;5091986;28;20216;-67
2022/03/03 02:22:36;;;;;;;0.50;0.50;;;4.40;99.90;4.00;101758.00;;;;5091752;28;20528;-67
2022/03/03 02:25:08;;;;;;;1.47;1.37;;;4.30;99.90;4.00;101696.00;;;;5091096;28;20218;-67
2022/03/03 02:27:34;;;;;;;2.30;2.17;;;4.20;99.90;4.30;101753.00;;;;5092620;28;20271;-67
2022/03/03 02:30:03;;;;;;;0.80;0.77;;;4.20;99.90;4.00;101756.00;;;;5091875;28;20177;-67
2022/03/03 02:32:33;;;;;;;1.37;1.30;;;4.20;99.90;4.00;101693.00;;;;5091890;28;20208;-67
2022/03/03 02:35:05;;;;;;;6.60;6.07;;;4.20;99.90;4.20;101741.00;;;;5090528;28;20177;-67
2022/03/03 02:37:43;;;;;;;0.40;0.40;;;4.20;99.90;4.20;101736.00;;;;5091866;28;20193;-68
2022/03/03 02:40:20;;;;;;;1.50;1.43;;;4.20;99.90;4.30;101734.00;;;;5074753;28;20624;-67
2022/03/03 02:42:54;;;;;;;0.20;0.20;;;4.30;99.90;3.80;101743.00;;;;5089973;28;20207;-67
2022/03/03 02:45:25;;;;;;;1.50;1.47;;;4.30;99.90;3.60;101710.00;;;;5075266;28;20180;-67
2022/03/03 02:47:52;;;;;;;1.93;1.13;;;4.00;99.90;3.60;101693.00;;;;5093348;28;20177;-67
2022/03/03 02:50:24;;;;;;;0.20;0.20;;;3.90;99.90;3.80;101705.00;;;;5091556;28;20275;-66
2022/03/03 02:52:53;;;;;;;0.73;0.73;;;3.90;99.90;3.60;101713.00;;;;5075024;28;20209;-67
2022/03/03 02:55:24;;;;;;;0.83;0.83;;;3.90;99.90;4.00;101693.00;;;;5074653;28;20229;-67
2022/03/03 02:57:56;;;;;;;0.60;0.60;;;4.00;99.90;3.80;101646.00;;;;5091954;28;20177;-67
2022/03/03 03:00:39;;;;;;;0.40;0.40;;;3.90;99.90;4.10;101700.00;;;;5091348;28;20227;-67
2022/03/03 03:03:15;;;;;;;0.90;0.90;;;4.00;99.90;4.00;101689.00;;;;5091083;28;20184;-67
2022/03/03 03:05:47;;;;;;;0.60;0.60;;;4.00;99.90;3.60;101694.00;;;;5090446;28;20246;-67
2022/03/03 03:08:15;;;;;;;2.20;2.10;;;3.90;99.90;3.70;101698.00;;;;5074868;28;20189;-67
2022/03/03 03:10:44;;;;;;;3.27;3.17;;;3.90;99.90;4.20;101710.00;;;;5074673;28;20242;-67
2022/03/03 03:13:18;;;;;;;1.03;1.03;;;4.10;99.90;4.00;101704.00;;;;5074121;28;20265;-67
2022/03/03 03:15:49;;;;;;;2.10;1.37;;;4.10;99.90;3.50;101669.00;;;;5091809;28;20215;-67
2022/03/03 03:18:21;;;;;;;1.83;1.73;;;3.90;99.90;3.90;101639.00;;;;5092410;28;20180;-67
2022/03/03 03:20:52;;;;;;;0.20;0.20;;;4.00;99.90;3.50;101693.00;;;;5096532;28;20184;-64
2022/03/03 03:23:22;;;;;;;0.50;0.50;;;3.90;99.90;3.40;101677.00;;;;5095162;28;20180;-65
2022/03/03 03:25:56;;;;;;;2.67;2.57;;;3.80;99.90;3.60;101664.00;;;;5094555;28;20180;-66
2022/03/03 03:28:27;;;;;;;0.40;0.40;;;3.70;99.90;3.40;101678.00;;;;5093918;28;20173;-65
2022/03/03 03:30:58;;;;;;;0.40;0.40;;;3.80;99.90;3.30;101669.00;;;;5095314;28;20634;-65
2022/03/03 03:33:30;;;;;;;3.43;3.13;;;3.70;99.90;3.40;101662.00;;;;5095414;28;20224;-65
2022/03/03 03:36:01;;;;;;;0.40;0.40;;;3.60;99.90;3.70;101660.00;;;;5094736;28;20255;-66
2022/03/03 03:38:32;;;;;;;2.67;2.40;;;3.80;99.90;3.60;101660.00;;;;5077153;28;20643;-66
2022/03/03 03:41:33;;;;;;;0.30;0.30;;;3.80;99.90;3.80;101617.00;;;;5094374;28;20255;-65
2022/03/03 03:44:04;;;;;;;0.60;0.60;;;3.80;99.90;3.80;101664.00;;;;5092883;28;20193;-66
2022/03/03 03:46:39;;;;;;;0.53;0.53;;;3.80;99.90;3.60;101669.00;;;;5076843;28;20675;-66
2022/03/03 03:49:10;;;;;;;0.40;0.40;;;3.80;99.90;3.80;101622.00;;;;5094699;28;20172;-66
2022/03/03 03:51:44;;;;;;;0.50;0.50;;;3.80;99.90;3.80;101676.00;;;;5094008;28;20664;-66
2022/03/03 03:54:16;;;;;;;3.07;2.87;;;3.80;99.90;3.80;101676.00;;;;5078321;28;20279;-65
2022/03/03 03:56:47;;;;;;;0.60;0.60;;;3.90;99.90;3.80;101687.00;;;;5093570;28;20211;-65
2022/03/03 03:59:16;;;;;;;0.30;0.30;;;3.80;99.90;3.60;101682.00;;;;5078395;28;20242;-65
2022/03/03 04:01:49;;;;;;;0.30;0.30;;;3.70;99.90;3.50;101673.00;;;;5094525;28;20185;-65
2022/03/03 04:04:16;;;;;;;1.00;1.00;;;3.70;99.90;3.50;101616.00;;;;5094438;28;20204;-66
2022/03/03 04:06:51;;;;;;;0.40;0.40;;;3.60;99.90;3.50;101661.00;;;;5076974;28;20779;-65
2022/03/03 04:09:23;;;;;;;0.53;0.53;;;3.60;99.90;3.30;101638.00;;;;5094426;28;20173;-65
2022/03/03 04:11:51;;;;;;;2.53;2.37;;;3.50;99.90;3.10;101659.00;;;;5077793;28;20614;-65
2022/03/03 04:14:24;;;;;;;3.13;3.03;;;3.40;99.90;3.20;101666.00;;;;5077612;28;20242;-66
2022/03/03 04:16:53;;;;;;;0.67;0.67;;;3.40;99.90;3.20;101656.00;;;;5094228;28;20263;-66
2022/03/03 04:19:21;;;;;;;1.97;1.87;;;3.40;99.90;3.00;101649.00;;;;5094729;28;20157;-66
2022/03/03 04:21:52;;;;;;;0.50;0.50;;;3.30;99.90;3.00;101652.00;;;;5077677;28;20189;-65
2022/03/03 04:24:26;;;;;;;0.40;0.40;;;3.30;99.90;3.10;101654.00;;;;5092911;28;20214;-65
2022/03/03 04:26:58;;;;;;;0.80;0.80;;;3.30;99.90;3.40;101646.00;;;;5094097;28;20179;-65
2022/03/03 04:29:35;;;;;;;0.77;0.77;;;3.40;99.90;2.90;101637.00;;;;5077396;28;20277;-65
2022/03/03 04:32:00;;;;;;;2.57;1.63;;;3.30;99.90;2.90;101655.00;;;;5092949;28;20223;-66
2022/03/03 04:34:26;;;;;;;0.87;0.87;;;3.20;99.90;2.90;101649.00;;;;5095590;28;20185;-66
2022/03/03 04:36:57;;;;;;;3.27;3.17;;;3.10;99.90;2.80;101641.00;;;;5095266;28;20180;-65
2022/03/03 04:39:31;;;;;;;0.60;0.60;;;3.10;99.90;2.80;101639.00;;;;5093460;28;20185;-66
2022/03/03 04:42:00;;;;;;;2.43;2.17;;;3.20;99.90;2.70;101651.00;;;;5093140;28;20701;-66
2022/03/03 04:44:37;;;;;;;1.73;1.57;;;3.20;99.90;2.80;101645.00;;;;5077177;28;20268;-66
2022/03/03 04:47:08;;;;;;;2.93;2.43;;;3.10;99.90;2.80;101566.00;;;;5093647;28;20613;-66
2022/03/03 04:49:40;;;;;;;1.00;1.00;;;3.10;99.90;2.60;101630.00;;;;5093097;28;20257;-66
2022/03/03 04:52:06;;;;;;;1.03;1.03;;;3.00;99.90;2.80;101609.00;;;;5092897;28;20211;-66
2022/03/03 04:54:35;;;;;;;1.77;1.73;;;3.00;99.90;3.00;101630.00;;;;5077090;28;20195;-66
2022/03/03 04:57:07;;;;;;;0.90;0.90;;;3.10;99.90;3.00;101617.00;;;;5093966;28;20187;-66
2022/03/03 04:59:35;;;;;;;0.50;0.50;;;3.10;99.90;3.20;101629.00;;;;5093690;28;20179;-66
2022/03/03 05:02:01;;;;;;;0.80;0.80;;;3.10;99.90;3.30;101633.00;;;;5076128;28;20268;-66
2022/03/03 05:04:29;;;;;;;12.20;11.17;;;3.20;99.90;3.30;101593.00;;;;5093353;28;20220;-67
2022/03/03 05:07:01;;;;;;;1.57;1.57;;;3.30;99.90;3.40;101590.00;;;;5075955;28;20230;-66
2022/03/03 05:09:30;;;;;;;0.40;0.40;;;3.40;99.90;3.30;101526.00;;;;5093460;28;20215;-66
2022/03/03 05:12:03;;;;;;;2.70;2.60;;;3.40;99.90;3.10;101635.00;;;;5092073;28;20207;-66
2022/03/03 05:14:31;;;;;;;3.30;2.40;;;3.30;99.90;3.20;101648.00;;;;5093276;28;20218;-66
2022/03/03 05:16:57;;;;;;;1.43;1.33;;;3.40;99.90;2.80;101655.00;;;;5092903;28;20173;-66
2022/03/03 05:19:26;;;;;;;0.60;0.60;;;3.40;99.90;3.10;101620.00;;;;5076419;28;20241;-67
2022/03/03 05:21:54;;;;;;;3.00;2.80;;;3.30;99.90;3.30;101639.00;;;;5092505;28;20242;-66
2022/03/03 05:24:20;;;;;;;1.57;1.47;;;3.40;99.90;2.80;101626.00;;;;5076297;28;20650;-66
2022/03/03 05:26:53;;;;;;;0.90;0.90;;;3.20;99.90;2.90;101636.00;;;;5093052;28;20173;-66
2022/03/03 05:29:25;;;;;;;1.90;1.70;;;3.30;99.90;2.80;101573.00;;;;5076085;28;20188;-66
2022/03/03 05:31:59;;;;;;;1.37;1.37;;;3.20;99.90;2.80;101625.00;;;;5091257;28;20242;-66
2022/03/03 05:34:30;;;;;;;0.60;0.60;;;3.20;99.90;3.10;101629.00;;;;5075924;28;20632;-67
2022/03/03 05:37:06;;;;;;;1.47;1.47;;;3.20;99.90;3.30;101595.00;;;;5075385;28;20172;-66
2022/03/03 05:39:31;;;;;;;1.67;1.57;;;3.40;99.90;3.20;101654.00;;;;5093014;28;20196;-67
2022/03/03 05:41:59;;;;;;;0.83;0.83;;;3.40;99.90;2.90;101650.00;;;;5075411;28;20219;-68
2022/03/03 05:44:28;;;;;;;0.70;0.70;;;3.30;99.90;3.00;101617.00;;;;5092566;28;20187;-67
2022/03/03 05:47:01;;;;;;;0.83;0.83;;;3.30;99.90;2.90;101625.00;;;;5091852;28;20168;-66
2022/03/03 05:49:33;;;;;;;4.13;1.77;;;3.20;99.90;2.90;101630.00;;;;5092578;28;20267;-66
2022/03/03 05:52:03;;;;;;;0.80;0.80;;;3.20;99.90;3.30;101629.00;;;;5076067;28;20676;-66
2022/03/03 05:54:28;;;;;;;3.33;3.03;;;3.20;99.90;3.00;101642.00;;;;5092306;28;20729;-67
2022/03/03 05:57:02;;;;;;;2.07;1.97;;;3.30;99.90;2.80;101638.00;;;;5091737;28;20215;-67
2022/03/03 05:59:34;;;;;;;0.80;0.80;;;3.10;99.90;2.90;101627.00;;;;5093440;28;20237;-67
2022/03/03 06:02:03;;;;;;;1.40;1.33;;;3.20;99.90;2.80;101621.00;;;;5075626;28;20589;-67
2022/03/03 06:04:30;;;;;;;4.37;4.07;;;3.10;99.90;2.70;101633.00;;;;5075909;28;20724;-67
2022/03/03 06:07:07;;;;;;;3.90;3.60;;;3.00;99.90;2.70;101639.00;;;;5074914;28;20210;-67
2022/03/03 06:09:40;;;;;;;1.27;1.17;;;3.10;99.90;2.70;101634.00;;;;5092541;28;20164;-67
2022/03/03 06:12:19;;;;;;;4.10;1.57;;;3.00;99.90;2.40;101629.00;;;;5092731;28;20200;-66
2022/03/03 06:15:05;;;;;;;2.33;2.23;;;3.00;99.90;2.80;101618.00;;;;5091605;28;20257;-66
2022/03/03 06:17:35;;;;;;;1.47;1.37;;;3.10;99.90;2.70;101605.00;;;;5075279;28;20173;-66
2022/03/03 06:20:10;;;;;;;1.87;1.87;;;3.00;99.90;2.70;101626.00;;;;5075919;28;20203;-67
2022/03/03 06:22:46;;;;;;;2.43;2.27;;;3.10;99.90;2.70;101615.00;;;;5092101;28;20531;-66
2022/03/03 06:25:29;;;;;;;2.03;1.97;;;3.00;99.90;2.60;101617.00;;;;5092172;28;20180;-67
2022/03/03 06:27:55;;;;;;;2.03;1.93;;;3.10;99.90;2.60;101564.00;;;;5091236;28;20172;-67
2022/03/03 06:30:20;;;;;;;2.20;2.10;;;3.10;99.90;2.80;101618.00;;;;5089576;28;20187;-67
2022/03/03 06:32:55;;;;;;;3.93;3.73;;;3.20;99.90;2.60;101593.00;;;;5094831;28;20226;-67
2022/03/03 06:35:41;;;;;;;3.47;3.17;;;3.10;99.90;2.50;101609.00;;;;5111405;28;20195;-66
2022/03/03 06:38:13;;;;;;;0.50;0.50;;;3.00;99.90;2.60;101613.00;;;;5111658;28;20191;-65
2022/03/03 06:40:48;;;;;;;1.20;1.20;;;3.00;99.90;2.80;101548.00;;;;5113053;28;20527;-66
2022/03/03 06:43:16;;;;;;;2.23;1.23;;;3.10;99.90;2.80;101626.00;;;;5094952;28;20594;-65
2022/03/03 06:45:42;;;;;;;1.30;1.30;;;3.30;99.90;2.80;101621.00;;;;5111295;28;20184;-66
2022/03/03 06:48:16;;;;;;;1.07;1.07;;;3.20;99.90;2.70;101618.00;;;;5094170;28;20211;-66
2022/03/03 06:50:52;;;;;;;5.90;3.47;;;3.10;99.90;2.90;101618.00;;;;5111662;28;20180;-67
2022/03/03 06:53:26;;;;;;;2.63;2.43;;;3.20;99.90;3.20;101618.00;;;;5111280;28;20211;-67
2022/03/03 06:56:03;;;;;;;1.20;1.20;;;3.30;99.90;3.00;101592.00;;;;5098095;28;20211;-67
2022/03/03 07:02:15;;;;;;;1.87;1.77;;;3.40;99.90;3.40;101626.00;;;;5114974;28;20202;-66
2022/03/03 07:04:41;;;;;;;2.97;2.17;;;3.60;99.90;3.60;101634.00;;;;5115840;28;20192;-67
2022/03/03 07:07:13;;;;;;;2.33;1.90;;;3.80;99.90;3.40;101639.00;;;;5115516;28;20241;-67
2022/03/03 07:09:43;;;;;;;1.80;1.70;;;3.70;99.90;3.70;101647.00;;;;5115488;28;20179;-67
2022/03/03 07:12:16;;;;;;;0.90;0.90;;;3.80;99.90;3.80;101648.00;;;;5113932;28;20211;-67
2022/03/03 07:14:41;;;;;;;2.43;2.33;;;4.00;99.90;3.50;101652.00;;;;5115402;28;20643;-67
2022/03/03 07:17:28;;;;;;;2.33;2.20;;;4.00;99.90;4.00;101654.00;;;;5098505;28;20194;-67
2022/03/03 07:20:10;;;;;;;2.83;2.10;;;4.10;99.90;4.00;101660.00;;;;5115089;28;20210;-68
2022/03/03 07:23:00;;;;;;;4.10;3.80;;;4.30;99.90;4.10;101615.00;;;;5116044;28;20187;-67
2022/03/03 07:25:57;;;;;;;0.60;0.60;;;4.30;99.90;4.10;101660.00;;;;5117030;28;20176;-67
2022/03/03 07:28:29;;;;;;;0.40;0.40;;;4.40;99.90;4.50;101670.00;;;;5088995;28;20184;-67
2022/03/03 07:31:01;;;;;;;2.13;2.03;;;4.60;99.90;4.90;101663.00;;;;5115826;28;20183;-66
2022/03/03 07:34:01;;;;;;;0.63;0.63;;;4.90;99.90;4.60;101670.00;;;;5115554;28;20221;-67
2022/03/03 07:36:39;;;;;;;2.67;1.37;;;5.00;99.90;4.50;101667.00;;;;5097548;28;20658;-67
2022/03/03 07:39:11;;;;;;;3.13;2.97;;;4.80;99.90;4.80;101620.00;;;;5099086;28;20266;-68
2022/03/03 07:41:47;;;;;;;0.97;0.87;;;5.00;99.90;4.80;101671.00;;;;5098346;28;20326;-67
2022/03/03 07:44:16;;;;;;;1.27;1.20;;;5.00;99.90;5.10;101672.00;;;;5116715;28;20176;-67
2022/03/03 07:46:51;;;;;;;5.57;5.03;;;5.20;99.90;4.70;101684.00;;;;5097137;28;20192;-66
2022/03/03 07:49:21;;;;;;;5.00;4.53;;;5.30;99.90;5.10;101689.00;;;;5115508;28;20176;-66
2022/03/03 07:51:55;;;;;;;0.50;0.50;;;5.40;99.90;5.70;101683.00;;;;5098459;28;20218;-65
2022/03/03 07:54:26;;;;;;;8.13;5.53;;;5.60;99.90;5.80;101692.00;;;;5115403;28;20177;-67
2022/03/03 07:57:04;;;;;;;3.53;3.27;;;5.90;99.90;5.90;101716.00;;;;5114068;28;20650;-67
2022/03/03 07:59:38;;;;;;;3.60;2.00;;;6.10;99.90;6.40;101716.00;;;;5115384;28;20165;-67
2022/03/03 08:02:22;;;;;;;1.13;1.13;;;6.40;99.90;6.80;101738.00;;;;5098444;28;20651;-67
2022/03/03 08:04:54;;;;;;;4.57;3.23;;;6.80;99.90;7.80;101688.00;;;;5098099;28;20189;-67
2022/03/03 08:07:34;;;;;;;2.73;2.33;;;7.40;99.90;7.90;101701.00;;;;5096931;28;20739;-66
2022/03/03 08:10:02;;;;;;;1.27;1.27;;;7.70;99.90;8.30;101697.00;;;;5114632;28;20660;-67
2022/03/03 08:12:37;;;;;;;1.93;1.93;;;8.00;99.90;8.10;101696.00;;;;5114049;28;20204;-68
2022/03/03 08:15:06;;;;;;;1.77;1.60;;;8.30;99.90;8.30;101709.00;;;;5114884;28;20484;-68
2022/03/03 08:17:40;;;;;;;5.33;3.87;;;8.40;99.90;8.50;101699.00;;;;5116113;28;20185;-68
2022/03/03 08:20:14;;;;;;;2.07;1.40;;;8.40;99.90;8.90;101702.00;;;;5098026;28;20209;-67
2022/03/03 08:22:46;;;;;;;0.83;0.83;;;8.70;99.90;9.20;101698.00;;;;5114005;28;20174;-67
2022/03/03 08:25:18;;;;;;;1.93;1.60;;;9.00;99.90;9.30;101697.00;;;;5097577;28;20188;-67
2022/03/03 08:27:49;;;;;;;17.13;3.90;;;9.20;99.90;9.70;101654.00;;;;5114725;28;20707;-66
2022/03/03 08:30:24;;;;;;;2.87;2.10;;;9.40;99.90;9.00;101715.00;;;;5096657;28;20181;-68
2022/03/03 08:33:12;;;;;;;6.27;4.90;;;9.40;99.90;9.10;101680.00;;;;5095224;28;20236;-68
2022/03/03 08:38:50;;;;;;;5.10;3.43;;;9.60;99.90;10.10;101698.00;;;;5114980;28;20183;-68
2022/03/03 08:41:23;;;;;;;4.57;2.27;;;9.90;99.90;9.90;101701.00;;;;5113416;28;20188;-68
2022/03/03 08:44:03;;;;;;;0.40;0.40;;;9.90;99.90;10.10;101653.00;;;;5097182;28;20260;-69
2022/03/03 08:46:37;;;;;;;2.93;1.80;;;10.00;99.90;10.40;101649.00;;;;5097546;28;20287;-68
2022/03/03 08:49:10;;;;;;;3.27;3.07;;;10.30;99.90;9.60;101702.00;;;;5097066;28;20644;-68
2022/03/03 08:51:42;;;;;;;2.63;2.43;;;10.20;99.90;9.90;101699.00;;;;5114239;28;20199;-68
2022/03/03 08:54:16;;;;;;;2.63;1.63;;;10.00;99.90;10.30;101656.00;;;;5098197;28;20203;-68
2022/03/03 08:56:42;;;;;;;3.03;2.40;;;10.20;99.90;10.70;101694.00;;;;5097110;28;20192;-68
2022/03/03 08:59:16;;;;;;;3.33;3.07;;;10.60;99.90;10.80;101698.00;;;;5079048;28;20648;-68
2022/03/03 09:01:44;;;;;;;3.93;2.90;;;10.70;99.90;10.80;101685.00;;;;5093465;28;20267;-68
2022/03/03 09:04:13;;;;;;;2.47;2.33;;;10.80;99.90;10.90;101688.00;;;;5076345;28;20192;-69
2022/03/03 09:06:49;;;;;;;2.20;2.10;;;10.90;99.90;10.80;101710.00;;;;5093571;28;20177;-69
2022/03/03 09:09:15;;;;;;;1.73;1.60;;;10.80;99.90;10.70;101684.00;;;;5096398;28;20183;-68
2022/03/03 09:11:54;;;;;;;0.70;0.70;;;11.00;99.90;12.00;101681.00;;;;5093432;28;20732;-69
2022/03/03 09:14:20;;;;;;;0.83;0.83;;;11.40;99.90;11.70;101673.00;;;;5086345;28;20174;-66
2022/03/03 09:16:53;;;;;;;4.27;4.07;;;11.70;99.90;11.30;101682.00;;;;5092358;28;20194;-66
2022/03/03 09:19:32;;;;;;;4.07;0.73;;;11.60;99.90;10.80;101681.00;;;;5092654;28;20184;-68
2022/03/03 09:22:03;;;;;;;3.80;1.43;;;11.10;99.90;12.30;101671.00;;;;5093138;28;20662;-66
2022/03/03 09:24:33;;;;;;;2.57;2.03;;;11.70;99.90;12.30;101663.00;;;;5112161;28;20186;-66
2022/03/03 09:27:07;;;;;;;1.37;1.33;;;12.10;99.90;12.50;101666.00;;;;5089106;28;20178;-68
2022/03/03 09:29:45;;;;;;;6.37;3.07;;;12.40;99.90;12.00;101663.00;;;;5110266;28;20190;-67
2022/03/03 09:32:30;;;;;;;3.10;1.97;;;12.30;99.90;12.40;101657.00;;;;5093656;28;20217;-68
2022/03/03 09:35:17;;;;;;;0.87;0.87;;;12.20;99.90;12.00;101642.00;;;;5095772;28;20285;-67
2022/03/03 09:37:43;;;;;;;0.90;0.90;;;12.20;99.90;12.50;101664.00;;;;5110956;28;20979;-68
2022/03/03 09:40:09;;;;;;;0.10;0.10;;;12.30;99.90;13.00;101660.00;;;;5112857;28;20173;-68
2022/03/03 09:42:35;;;;;;;1.73;1.50;;;12.60;99.90;11.80;101667.00;;;;5113971;28;20197;-67
2022/03/03 09:45:05;;;;;;;7.00;4.10;;;12.20;99.90;12.90;101664.00;;;;5094716;28;20661;-68
2022/03/03 09:47:34;;;;;;;2.13;1.97;;;12.60;99.90;12.60;101661.00;;;;5095185;28;20267;-74
2022/03/03 09:50:00;;;;;;;0.73;0.73;;;12.70;99.90;11.30;101669.00;;;;5112889;28;20638;-68
2022/03/03 09:52:26;;;;;;;2.43;1.80;;;12.20;99.90;12.50;101651.00;;;;5095397;28;20317;-68
2022/03/03 09:54:57;;;;;;;4.70;3.73;;;12.30;99.90;13.30;101653.00;;;;5095641;28;20187;-68
2022/03/03 09:57:24;;;;;;;3.03;2.23;;;12.80;99.90;13.50;101644.00;;;;5113613;28;20180;-70
2022/03/03 09:59:56;;;;;;;3.97;3.67;;;13.10;99.90;12.40;101654.00;;;;5113235;28;20184;-70
2022/03/03 10:02:23;;;;;;;2.07;0.87;;;12.60;99.90;13.20;101661.00;;;;5096648;28;20217;-70
2022/03/03 10:04:49;;;;;;;3.23;2.43;;;13.00;99.90;13.60;101644.00;;;;5095858;28;20227;-71
2022/03/03 10:07:15;;;;;;;3.33;1.70;;;13.30;99.90;11.50;101669.00;;;;5095576;28;20177;-70
2022/03/03 10:10:05;;;;;;;2.10;2.00;;;12.20;99.90;12.70;101658.00;;;;5112643;28;20204;-71
2022/03/03 10:12:47;;;;;;;2.93;2.23;;;12.40;99.90;13.40;101647.00;;;;5113246;28;20172;-70
2022/03/03 10:15:15;;;;;;;3.57;1.83;;;13.00;99.90;13.30;101608.00;;;;5112652;28;20248;-70
2022/03/03 10:17:43;;;;;;;6.07;4.80;;;13.20;99.90;12.50;101659.00;;;;5112884;28;20276;-71
2022/03/03 10:20:12;;;;;;;2.13;1.97;;;13.10;99.90;12.30;101669.00;;;;5095852;28;20314;-71
2022/03/03 10:33:19;;;;;;;1.63;1.23;;;12.20;99.90;12.60;101678.00;;;;5050667;28;20592;-62
2022/03/03 10:36:09;;;;;;;6.70;4.23;;;12.50;99.90;13.20;101666.00;;;;5030561;28;20175;-70
2022/03/03 10:38:51;;;;;;;3.33;3.03;;;13.10;99.90;13.20;101672.00;;;;5013076;28;20182;-62
2022/03/03 10:41:41;;;;;;;4.10;3.60;;;13.30;99.90;13.40;101679.00;;;;5030564;28;20186;-62
2022/03/03 10:44:31;;;;;;;3.13;2.93;;;13.30;99.90;13.50;101663.00;;;;5030613;28;20209;-63
2022/03/03 10:47:21;;;;;;;4.50;4.07;;;13.50;99.90;13.10;101634.00;;;;5021060;28;20198;-64
2022/03/03 10:49:52;;;;;;;8.37;5.90;;;13.30;99.90;12.90;101660.00;;;;5029368;28;20581;-70
2022/03/03 10:52:25;;;;;;;5.37;3.53;;;13.30;99.90;13.00;101667.00;;;;5029257;28;20206;-70
2022/03/03 10:54:55;;;;;;;4.70;3.23;;;13.20;99.90;13.10;101662.00;;;;5029044;28;20653;-70
2022/03/03 10:57:57;;;;;;;3.13;2.40;;;13.20;99.90;13.20;101655.00;;;;5012909;28;20183;-70
2022/03/03 11:00:30;;;;;;;6.30;4.37;;;13.30;99.90;12.90;101649.00;;;;5029248;28;20181;-70
2022/03/03 11:02:58;;;;;;;3.10;2.80;;;13.40;99.90;12.60;101655.00;;;;5029973;28;20270;-69
2022/03/03 11:05:27;;;;;;;3.87;2.50;;;13.10;99.90;13.30;101652.00;;;;5029822;28;20210;-69
2022/03/03 11:07:53;;;;;;;5.07;4.33;;;13.20;99.90;13.10;101661.00;;;;5012563;28;20278;-69
2022/03/03 11:10:24;;;;;;;9.53;6.80;;;13.40;99.90;12.20;101662.00;;;;5012636;28;20278;-69
2022/03/03 11:12:53;;;;;;;2.83;1.13;;;13.00;99.90;12.30;101652.00;;;;5030011;28;20213;-69
2022/03/03 11:15:22;;;;;;;4.93;3.57;;;12.80;99.90;13.20;101648.00;;;;5029229;28;20175;-69
2022/03/03 11:17:50;;;;;;;4.70;3.97;;;13.10;99.90;13.80;101648.00;;;;5012671;28;20281;-68
2022/03/03 11:20:18;;;;;;;6.63;4.27;;;13.60;99.90;13.70;101651.00;;;;5028605;28;20229;-68
2022/03/03 11:22:45;;;;;;;1.40;1.17;;;13.70;99.90;14.40;101655.00;;;;5028532;28;20225;-69
2022/03/03 11:25:31;;;;;;;3.27;3.00;;;14.10;99.90;13.20;101659.00;;;;5028878;28;20609;-68
2022/03/03 11:28:15;;;;;;;1.80;1.70;;;13.70;99.50;13.40;101662.00;;;;5011953;28;20202;-68
2022/03/03 11:30:46;;;;;;;2.73;2.50;;;13.50;99.90;13.70;101619.00;;;;5028506;28;20206;-69
2022/03/03 11:33:30;;;;;;;2.80;2.13;;;13.70;99.90;14.20;101650.00;;;;5028344;28;20238;-69
2022/03/03 11:36:03;;;;;;;3.80;3.37;;;13.90;99.90;13.50;101648.00;;;;5027927;28;20198;-69
2022/03/03 11:38:54;;;;;;;0.87;0.73;;;13.90;99.90;14.00;101591.00;;;;5026629;28;20191;-71